sensor_id;sensor_type;location;lat;lon;timestamp;P1;durP1;ratioP1;P2;durP2;ratioP2
62947;SDS011;51940;52.126;-0.994;2022-12-18T00:01:32;31.90;;;15.10;;
62947;SDS011;51940;52.126;-0.994;2022-12-18T00:03:59;28.00;;;14.30;;
62947;SDS011;51940;52.126;-0.994;2022-12-18T00:06:27;31.40;;;14.50;;
62947;SDS011;51940;52.126;-0.994;2022-12-18T00:08:55;27.80;;;14.10;;
62947;SDS011;51940;52.126;-0.994;2022-12-18T00:11:25;27.60;;;13.80;;
62947;SDS011;51940;52.126;-0.994;2022-12-18T00:13:53;28.30;;;13.80;;
62947;SDS011;51940;52.126;-0.994;2022-12-18T00:16:22;28.20;;;13.60;;
62947;SDS011;51940;52.126;-0.994;2022-12-18T00:18:49;28.60;;;13.80;;
62947;SDS011;51940;52.126;-0.994;2022-12-18T00:21:16;27.70;;;13.80;;
62947;SDS011;51940;52.126;-0.994;2022-12-18T00:23:43;30.00;;;15.80;;
62947;SDS011;51940;52.126;-0.994;2022-12-18T00:26:13;26.70;;;14.00;;
62947;SDS011;51940;52.126;-0.994;2022-12-18T00:28:41;32.00;;;14.30;;
62947;SDS011;51940;52.126;-0.994;2022-12-18T00:31:08;26.10;;;13.60;;
62947;SDS011;51940;52.126;-0.994;2022-12-18T00:33:36;29.30;;;14.00;;
62947;SDS011;51940;52.126;-0.994;2022-12-18T00:38:33;32.50;;;14.20;;
62947;SDS011;51940;52.126;-0.994;2022-12-18T00:40:59;30.40;;;14.30;;
62947;SDS011;51940;52.126;-0.994;2022-12-18T00:43:25;32.80;;;14.70;;
62947;SDS011;51940;52.126;-0.994;2022-12-18T00:45:50;33.60;;;16.00;;
62947;SDS011;51940;52.126;-0.994;2022-12-18T00:48:16;27.00;;;14.80;;
62947;SDS011;51940;52.126;-0.994;2022-12-18T00:50:42;33.40;;;15.30;;
62947;SDS011;51940;52.126;-0.994;2022-12-18T00:53:07;39.50;;;17.90;;
62947;SDS011;51940;52.126;-0.994;2022-12-18T00:55:32;41.30;;;16.60;;
62947;SDS011;51940;52.126;-0.994;2022-12-18T00:57:58;40.00;;;16.40;;
62947;SDS011;51940;52.126;-0.994;2022-12-18T01:00:25;39.80;;;18.00;;
62947;SDS011;51940;52.126;-0.994;2022-12-18T01:02:50;45.30;;;18.80;;
62947;SDS011;51940;52.126;-0.994;2022-12-18T01:05:16;39.20;;;17.70;;
62947;SDS011;51940;52.126;-0.994;2022-12-18T01:07:41;36.10;;;16.20;;
62947;SDS011;51940;52.126;-0.994;2022-12-18T01:10:07;33.20;;;16.80;;
62947;SDS011;51940;52.126;-0.994;2022-12-18T01:12:34;34.40;;;16.80;;
62947;SDS011;51940;52.126;-0.994;2022-12-18T01:15:00;36.50;;;16.20;;
62947;SDS011;51940;52.126;-0.994;2022-12-18T01:17:25;36.80;;;16.30;;
62947;SDS011;51940;52.126;-0.994;2022-12-18T01:19:51;39.00;;;18.10;;
62947;SDS011;51940;52.126;-0.994;2022-12-18T01:22:16;35.30;;;17.80;;
62947;SDS011;51940;52.126;-0.994;2022-12-18T01:24:42;36.70;;;17.10;;
62947;SDS011;51940;52.126;-0.994;2022-12-18T01:27:07;37.30;;;17.60;;
62947;SDS011;51940;52.126;-0.994;2022-12-18T01:29:32;40.60;;;18.90;;
62947;SDS011;51940;52.126;-0.994;2022-12-18T01:31:58;36.30;;;17.20;;
62947;SDS011;51940;52.126;-0.994;2022-12-18T01:34:23;34.00;;;16.60;;
62947;SDS011;51940;52.126;-0.994;2022-12-18T01:36:49;37.40;;;17.30;;
62947;SDS011;51940;52.126;-0.994;2022-12-18T01:39:17;37.30;;;17.60;;
62947;SDS011;51940;52.126;-0.994;2022-12-18T01:41:43;39.50;;;18.00;;
62947;SDS011;51940;52.126;-0.994;2022-12-18T01:50:01;42.70;;;18.50;;
62947;SDS011;51940;52.126;-0.994;2022-12-18T01:52:31;45.80;;;19.60;;
62947;SDS011;51940;52.126;-0.994;2022-12-18T01:54:58;45.20;;;19.60;;
62947;SDS011;51940;52.126;-0.994;2022-12-18T01:57:25;41.30;;;18.10;;
62947;SDS011;51940;52.126;-0.994;2022-12-18T01:59:52;45.60;;;18.80;;
62947;SDS011;51940;52.126;-0.994;2022-12-18T02:02:21;47.40;;;20.20;;
62947;SDS011;51940;52.126;-0.994;2022-12-18T02:04:47;42.40;;;19.00;;
62947;SDS011;51940;52.126;-0.994;2022-12-18T02:10:00;40.30;;;18.70;;
62947;SDS011;51940;52.126;-0.994;2022-12-18T02:12:49;46.40;;;19.30;;
62947;SDS011;51940;52.126;-0.994;2022-12-18T02:18:01;43.20;;;19.00;;
62947;SDS011;51940;52.126;-0.994;2022-12-18T02:28:04;45.50;;;18.70;;
62947;SDS011;51940;52.126;-0.994;2022-12-18T02:30:34;43.40;;;19.00;;
62947;SDS011;51940;52.126;-0.994;2022-12-18T02:33:03;42.60;;;18.20;;
62947;SDS011;51940;52.126;-0.994;2022-12-18T02:35:31;41.60;;;18.40;;
62947;SDS011;51940;52.126;-0.994;2022-12-18T02:37:58;41.40;;;18.20;;
62947;SDS011;51940;52.126;-0.994;2022-12-18T02:40:26;40.70;;;17.90;;
62947;SDS011;51940;52.126;-0.994;2022-12-18T02:42:53;44.90;;;18.30;;
62947;SDS011;51940;52.126;-0.994;2022-12-18T02:45:19;39.60;;;19.10;;
62947;SDS011;51940;52.126;-0.994;2022-12-18T02:47:46;44.50;;;19.70;;
62947;SDS011;51940;52.126;-0.994;2022-12-18T03:01:33;41.50;;;18.40;;
62947;SDS011;51940;52.126;-0.994;2022-12-18T03:06:57;50.50;;;20.60;;
62947;SDS011;51940;52.126;-0.994;2022-12-18T03:09:29;41.40;;;19.60;;
62947;SDS011;51940;52.126;-0.994;2022-12-18T03:15:09;39.40;;;18.60;;
62947;SDS011;51940;52.126;-0.994;2022-12-18T03:17:35;44.10;;;19.60;;
62947;SDS011;51940;52.126;-0.994;2022-12-18T03:20:08;45.10;;;19.20;;
62947;SDS011;51940;52.126;-0.994;2022-12-18T03:22:39;45.80;;;19.80;;
62947;SDS011;51940;52.126;-0.994;2022-12-18T03:25:11;44.70;;;19.20;;
62947;SDS011;51940;52.126;-0.994;2022-12-18T03:27:44;49.70;;;19.80;;
62947;SDS011;51940;52.126;-0.994;2022-12-18T03:30:15;46.80;;;19.80;;
62947;SDS011;51940;52.126;-0.994;2022-12-18T03:35:14;48.00;;;19.20;;
62947;SDS011;51940;52.126;-0.994;2022-12-18T03:37:44;42.20;;;20.20;;
62947;SDS011;51940;52.126;-0.994;2022-12-18T03:40:09;51.50;;;20.70;;
62947;SDS011;51940;52.126;-0.994;2022-12-18T03:45:33;45.00;;;19.90;;
62947;SDS011;51940;52.126;-0.994;2022-12-18T03:48:12;52.30;;;20.90;;
62947;SDS011;51940;52.126;-0.994;2022-12-18T03:50:57;49.30;;;19.80;;
62947;SDS011;51940;52.126;-0.994;2022-12-18T03:56:23;50.70;;;21.40;;
62947;SDS011;51940;52.126;-0.994;2022-12-18T03:58:53;55.20;;;22.60;;
62947;SDS011;51940;52.126;-0.994;2022-12-18T04:01:23;55.10;;;21.60;;
62947;SDS011;51940;52.126;-0.994;2022-12-18T04:03:58;56.80;;;22.60;;
62947;SDS011;51940;52.126;-0.994;2022-12-18T04:06:26;52.00;;;22.40;;
62947;SDS011;51940;52.126;-0.994;2022-12-18T04:08:54;53.40;;;21.60;;
62947;SDS011;51940;52.126;-0.994;2022-12-18T04:11:20;58.80;;;22.10;;
62947;SDS011;51940;52.126;-0.994;2022-12-18T04:13:45;55.00;;;22.20;;
62947;SDS011;51940;52.126;-0.994;2022-12-18T04:16:10;52.40;;;22.10;;
62947;SDS011;51940;52.126;-0.994;2022-12-18T04:18:36;61.30;;;23.60;;
62947;SDS011;51940;52.126;-0.994;2022-12-18T04:21:02;57.30;;;21.70;;
62947;SDS011;51940;52.126;-0.994;2022-12-18T04:23:27;57.10;;;21.70;;
62947;SDS011;51940;52.126;-0.994;2022-12-18T04:25:53;66.20;;;23.00;;
62947;SDS011;51940;52.126;-0.994;2022-12-18T04:28:18;61.40;;;22.40;;
62947;SDS011;51940;52.126;-0.994;2022-12-18T04:30:44;59.40;;;23.50;;
62947;SDS011;51940;52.126;-0.994;2022-12-18T04:33:10;60.00;;;23.20;;
62947;SDS011;51940;52.126;-0.994;2022-12-18T04:35:38;61.90;;;22.50;;
62947;SDS011;51940;52.126;-0.994;2022-12-18T04:38:05;59.90;;;23.40;;
62947;SDS011;51940;52.126;-0.994;2022-12-18T04:40:35;62.10;;;23.70;;
62947;SDS011;51940;52.126;-0.994;2022-12-18T04:43:02;59.50;;;23.60;;
62947;SDS011;51940;52.126;-0.994;2022-12-18T04:45:28;56.90;;;21.60;;
62947;SDS011;51940;52.126;-0.994;2022-12-18T04:47:53;70.30;;;25.10;;
62947;SDS011;51940;52.126;-0.994;2022-12-18T04:50:18;63.00;;;24.40;;
62947;SDS011;51940;52.126;-0.994;2022-12-18T04:52:44;63.70;;;23.90;;
62947;SDS011;51940;52.126;-0.994;2022-12-18T04:55:09;65.40;;;23.50;;
62947;SDS011;51940;52.126;-0.994;2022-12-18T04:57:35;60.80;;;24.30;;
62947;SDS011;51940;52.126;-0.994;2022-12-18T05:00:00;68.80;;;24.30;;
62947;SDS011;51940;52.126;-0.994;2022-12-18T05:02:26;58.20;;;23.00;;
62947;SDS011;51940;52.126;-0.994;2022-12-18T05:04:51;63.60;;;23.90;;
62947;SDS011;51940;52.126;-0.994;2022-12-18T05:07:16;61.80;;;23.50;;
62947;SDS011;51940;52.126;-0.994;2022-12-18T05:09:42;60.20;;;22.00;;
62947;SDS011;51940;52.126;-0.994;2022-12-18T05:12:07;64.50;;;24.30;;
62947;SDS011;51940;52.126;-0.994;2022-12-18T05:14:32;57.30;;;22.30;;
62947;SDS011;51940;52.126;-0.994;2022-12-18T05:16:58;57.00;;;22.80;;
62947;SDS011;51940;52.126;-0.994;2022-12-18T05:19:23;62.30;;;22.80;;
62947;SDS011;51940;52.126;-0.994;2022-12-18T05:21:48;66.00;;;22.00;;
62947;SDS011;51940;52.126;-0.994;2022-12-18T05:24:14;61.60;;;23.00;;
62947;SDS011;51940;52.126;-0.994;2022-12-18T05:26:39;58.90;;;22.20;;
62947;SDS011;51940;52.126;-0.994;2022-12-18T05:29:05;62.50;;;22.80;;
62947;SDS011;51940;52.126;-0.994;2022-12-18T05:31:30;61.60;;;22.50;;
62947;SDS011;51940;52.126;-0.994;2022-12-18T05:33:55;58.70;;;21.90;;
62947;SDS011;51940;52.126;-0.994;2022-12-18T05:36:21;58.10;;;21.60;;
62947;SDS011;51940;52.126;-0.994;2022-12-18T05:38:46;61.90;;;22.10;;
62947;SDS011;51940;52.126;-0.994;2022-12-18T05:41:12;60.70;;;22.70;;
62947;SDS011;51940;52.126;-0.994;2022-12-18T05:43:37;53.50;;;20.90;;
62947;SDS011;51940;52.126;-0.994;2022-12-18T05:46:05;62.40;;;21.40;;
62947;SDS011;51940;52.126;-0.994;2022-12-18T05:48:32;62.70;;;22.30;;
62947;SDS011;51940;52.126;-0.994;2022-12-18T05:51:02;55.70;;;20.90;;
62947;SDS011;51940;52.126;-0.994;2022-12-18T05:53:32;56.10;;;21.00;;
62947;SDS011;51940;52.126;-0.994;2022-12-18T05:56:02;54.00;;;20.30;;
62947;SDS011;51940;52.126;-0.994;2022-12-18T05:58:29;49.10;;;18.50;;
62947;SDS011;51940;52.126;-0.994;2022-12-18T06:00:56;49.60;;;18.70;;
62947;SDS011;51940;52.126;-0.994;2022-12-18T06:03:22;53.50;;;19.60;;
62947;SDS011;51940;52.126;-0.994;2022-12-18T06:05:47;52.60;;;19.50;;
62947;SDS011;51940;52.126;-0.994;2022-12-18T06:08:13;50.50;;;18.80;;
62947;SDS011;51940;52.126;-0.994;2022-12-18T06:10:39;49.90;;;18.90;;
62947;SDS011;51940;52.126;-0.994;2022-12-18T06:13:05;46.50;;;17.90;;
62947;SDS011;51940;52.126;-0.994;2022-12-18T06:15:31;53.30;;;18.90;;
62947;SDS011;51940;52.126;-0.994;2022-12-18T06:17:57;47.40;;;18.00;;
62947;SDS011;51940;52.126;-0.994;2022-12-18T06:20:23;49.80;;;17.90;;
62947;SDS011;51940;52.126;-0.994;2022-12-18T06:22:48;49.30;;;18.00;;
62947;SDS011;51940;52.126;-0.994;2022-12-18T06:25:13;52.10;;;18.50;;
62947;SDS011;51940;52.126;-0.994;2022-12-18T06:27:39;49.30;;;17.80;;
62947;SDS011;51940;52.126;-0.994;2022-12-18T06:30:05;43.20;;;16.30;;
62947;SDS011;51940;52.126;-0.994;2022-12-18T06:32:31;48.30;;;18.20;;
62947;SDS011;51940;52.126;-0.994;2022-12-18T06:34:56;43.00;;;16.10;;
62947;SDS011;51940;52.126;-0.994;2022-12-18T06:37:22;44.60;;;16.60;;
62947;SDS011;51940;52.126;-0.994;2022-12-18T06:39:51;48.50;;;17.40;;
62947;SDS011;51940;52.126;-0.994;2022-12-18T06:42:17;42.90;;;15.40;;
62947;SDS011;51940;52.126;-0.994;2022-12-18T06:44:43;45.40;;;18.00;;
62947;SDS011;51940;52.126;-0.994;2022-12-18T06:47:08;45.50;;;17.90;;
62947;SDS011;51940;52.126;-0.994;2022-12-18T06:49:34;44.70;;;16.40;;
62947;SDS011;51940;52.126;-0.994;2022-12-18T06:51:59;44.60;;;16.80;;
62947;SDS011;51940;52.126;-0.994;2022-12-18T06:54:24;44.10;;;16.80;;
62947;SDS011;51940;52.126;-0.994;2022-12-18T06:56:50;43.10;;;17.90;;
62947;SDS011;51940;52.126;-0.994;2022-12-18T06:59:15;51.00;;;18.50;;
62947;SDS011;51940;52.126;-0.994;2022-12-18T07:01:40;44.50;;;17.20;;
62947;SDS011;51940;52.126;-0.994;2022-12-18T07:04:06;43.40;;;16.70;;
62947;SDS011;51940;52.126;-0.994;2022-12-18T07:06:32;45.80;;;17.70;;
62947;SDS011;51940;52.126;-0.994;2022-12-18T07:08:58;45.90;;;17.60;;
62947;SDS011;51940;52.126;-0.994;2022-12-18T07:11:23;42.30;;;16.70;;
62947;SDS011;51940;52.126;-0.994;2022-12-18T07:13:49;44.30;;;17.80;;
62947;SDS011;51940;52.126;-0.994;2022-12-18T07:16:17;46.80;;;16.40;;
62947;SDS011;51940;52.126;-0.994;2022-12-18T07:18:44;41.70;;;16.40;;
62947;SDS011;51940;52.126;-0.994;2022-12-18T07:21:12;45.60;;;17.20;;
62947;SDS011;51940;52.126;-0.994;2022-12-18T07:23:42;43.70;;;16.80;;
62947;SDS011;51940;52.126;-0.994;2022-12-18T07:26:09;41.30;;;16.60;;
62947;SDS011;51940;52.126;-0.994;2022-12-18T07:28:37;44.60;;;17.30;;
62947;SDS011;51940;52.126;-0.994;2022-12-18T07:31:04;42.60;;;17.20;;
62947;SDS011;51940;52.126;-0.994;2022-12-18T07:33:32;44.40;;;16.20;;
62947;SDS011;51940;52.126;-0.994;2022-12-18T07:35:58;41.60;;;16.60;;
62947;SDS011;51940;52.126;-0.994;2022-12-18T07:38:24;44.20;;;16.80;;
62947;SDS011;51940;52.126;-0.994;2022-12-18T07:40:50;38.70;;;15.30;;
62947;SDS011;51940;52.126;-0.994;2022-12-18T07:43:15;42.10;;;17.40;;
62947;SDS011;51940;52.126;-0.994;2022-12-18T07:45:41;45.00;;;16.50;;
62947;SDS011;51940;52.126;-0.994;2022-12-18T07:48:07;45.10;;;17.70;;
62947;SDS011;51940;52.126;-0.994;2022-12-18T07:50:32;43.80;;;17.40;;
62947;SDS011;51940;52.126;-0.994;2022-12-18T07:52:57;47.80;;;17.90;;
62947;SDS011;51940;52.126;-0.994;2022-12-18T07:55:23;45.80;;;17.60;;
62947;SDS011;51940;52.126;-0.994;2022-12-18T07:57:48;44.00;;;17.50;;
62947;SDS011;51940;52.126;-0.994;2022-12-18T08:00:14;40.90;;;17.00;;
62947;SDS011;51940;52.126;-0.994;2022-12-18T08:02:39;45.50;;;16.20;;
62947;SDS011;51940;52.126;-0.994;2022-12-18T08:05:05;43.00;;;17.20;;
62947;SDS011;51940;52.126;-0.994;2022-12-18T08:07:30;46.90;;;16.90;;
62947;SDS011;51940;52.126;-0.994;2022-12-18T08:09:56;43.50;;;17.60;;
62947;SDS011;51940;52.126;-0.994;2022-12-18T08:12:21;43.70;;;18.00;;
62947;SDS011;51940;52.126;-0.994;2022-12-18T08:14:46;41.20;;;17.30;;
62947;SDS011;51940;52.126;-0.994;2022-12-18T08:17:12;50.70;;;18.20;;
62947;SDS011;51940;52.126;-0.994;2022-12-18T08:19:37;45.20;;;16.90;;
62947;SDS011;51940;52.126;-0.994;2022-12-18T08:22:03;44.90;;;17.70;;
62947;SDS011;51940;52.126;-0.994;2022-12-18T08:24:28;43.50;;;17.60;;
62947;SDS011;51940;52.126;-0.994;2022-12-18T08:26:53;41.80;;;16.90;;
62947;SDS011;51940;52.126;-0.994;2022-12-18T08:29:22;42.40;;;16.90;;
62947;SDS011;51940;52.126;-0.994;2022-12-18T08:31:47;44.10;;;18.50;;
62947;SDS011;51940;52.126;-0.994;2022-12-18T08:34:13;41.60;;;17.70;;
62947;SDS011;51940;52.126;-0.994;2022-12-18T08:36:38;43.30;;;17.20;;
62947;SDS011;51940;52.126;-0.994;2022-12-18T08:39:03;47.40;;;18.50;;
62947;SDS011;51940;52.126;-0.994;2022-12-18T08:41:29;42.70;;;17.90;;
62947;SDS011;51940;52.126;-0.994;2022-12-18T08:43:54;39.90;;;17.20;;
62947;SDS011;51940;52.126;-0.994;2022-12-18T08:46:39;42.30;;;17.60;;
62947;SDS011;51940;52.126;-0.994;2022-12-18T08:49:07;41.90;;;17.70;;
62947;SDS011;51940;52.126;-0.994;2022-12-18T08:51:34;45.30;;;18.20;;
62947;SDS011;51940;52.126;-0.994;2022-12-18T08:54:01;45.00;;;18.20;;
62947;SDS011;51940;52.126;-0.994;2022-12-18T08:56:27;46.80;;;17.80;;
62947;SDS011;51940;52.126;-0.994;2022-12-18T08:58:53;47.90;;;17.60;;
62947;SDS011;51940;52.126;-0.994;2022-12-18T09:01:20;49.00;;;18.40;;
62947;SDS011;51940;52.126;-0.994;2022-12-18T09:03:46;43.30;;;18.80;;
62947;SDS011;51940;52.126;-0.994;2022-12-18T09:06:18;41.50;;;17.90;;
62947;SDS011;51940;52.126;-0.994;2022-12-18T09:08:45;39.20;;;16.90;;
62947;SDS011;51940;52.126;-0.994;2022-12-18T09:11:15;40.50;;;17.30;;
62947;SDS011;51940;52.126;-0.994;2022-12-18T09:13:45;41.40;;;17.00;;
62947;SDS011;51940;52.126;-0.994;2022-12-18T09:16:11;38.00;;;17.40;;
62947;SDS011;51940;52.126;-0.994;2022-12-18T09:18:36;37.00;;;16.70;;
62947;SDS011;51940;52.126;-0.994;2022-12-18T09:21:15;43.40;;;18.30;;
62947;SDS011;51940;52.126;-0.994;2022-12-18T09:23:42;41.90;;;17.30;;
62947;SDS011;51940;52.126;-0.994;2022-12-18T09:26:08;40.60;;;17.00;;
62947;SDS011;51940;52.126;-0.994;2022-12-18T09:28:34;40.30;;;16.90;;
62947;SDS011;51940;52.126;-0.994;2022-12-18T09:31:02;40.50;;;17.40;;
62947;SDS011;51940;52.126;-0.994;2022-12-18T09:33:30;44.20;;;17.40;;
62947;SDS011;51940;52.126;-0.994;2022-12-18T09:35:56;40.80;;;17.10;;
62947;SDS011;51940;52.126;-0.994;2022-12-18T09:38:21;40.20;;;17.20;;
62947;SDS011;51940;52.126;-0.994;2022-12-18T09:40:49;38.70;;;17.30;;
62947;SDS011;51940;52.126;-0.994;2022-12-18T09:43:19;34.30;;;16.00;;
62947;SDS011;51940;52.126;-0.994;2022-12-18T09:45:53;38.10;;;16.80;;
62947;SDS011;51940;52.126;-0.994;2022-12-18T09:48:26;41.70;;;18.30;;
62947;SDS011;51940;52.126;-0.994;2022-12-18T09:50:57;37.80;;;15.70;;
62947;SDS011;51940;52.126;-0.994;2022-12-18T09:53:28;38.50;;;16.80;;
62947;SDS011;51940;52.126;-0.994;2022-12-18T09:55:58;40.30;;;16.90;;
62947;SDS011;51940;52.126;-0.994;2022-12-18T10:00:56;39.00;;;17.80;;
62947;SDS011;51940;52.126;-0.994;2022-12-18T10:03:22;38.80;;;16.90;;
62947;SDS011;51940;52.126;-0.994;2022-12-18T10:09:09;40.70;;;16.40;;
62947;SDS011;51940;52.126;-0.994;2022-12-18T10:14:36;42.50;;;16.20;;
62947;SDS011;51940;52.126;-0.994;2022-12-18T10:17:18;39.10;;;17.70;;
62947;SDS011;51940;52.126;-0.994;2022-12-18T10:25:05;37.60;;;18.20;;
62947;SDS011;51940;52.126;-0.994;2022-12-18T10:27:32;42.40;;;18.40;;
62947;SDS011;51940;52.126;-0.994;2022-12-18T10:29:57;39.20;;;18.00;;
62947;SDS011;51940;52.126;-0.994;2022-12-18T10:32:29;42.00;;;18.40;;
62947;SDS011;51940;52.126;-0.994;2022-12-18T10:34:56;38.20;;;17.40;;
62947;SDS011;51940;52.126;-0.994;2022-12-18T10:37:24;48.50;;;17.90;;
62947;SDS011;51940;52.126;-0.994;2022-12-18T10:40:11;37.90;;;17.40;;
62947;SDS011;51940;52.126;-0.994;2022-12-18T10:42:38;33.90;;;16.30;;
62947;SDS011;51940;52.126;-0.994;2022-12-18T10:45:13;42.20;;;18.10;;
62947;SDS011;51940;52.126;-0.994;2022-12-18T10:47:41;42.90;;;17.40;;
62947;SDS011;51940;52.126;-0.994;2022-12-18T10:50:18;35.90;;;16.70;;
62947;SDS011;51940;52.126;-0.994;2022-12-18T10:52:53;36.80;;;16.80;;
62947;SDS011;51940;52.126;-0.994;2022-12-18T10:55:21;36.50;;;16.70;;
62947;SDS011;51940;52.126;-0.994;2022-12-18T10:57:47;39.80;;;16.90;;
62947;SDS011;51940;52.126;-0.994;2022-12-18T11:00:26;39.50;;;17.20;;
62947;SDS011;51940;52.126;-0.994;2022-12-18T11:02:54;40.00;;;16.60;;
62947;SDS011;51940;52.126;-0.994;2022-12-18T11:07:50;36.10;;;15.80;;
62947;SDS011;51940;52.126;-0.994;2022-12-18T11:10:19;36.90;;;16.20;;
62947;SDS011;51940;52.126;-0.994;2022-12-18T11:12:47;36.60;;;16.20;;
62947;SDS011;51940;52.126;-0.994;2022-12-18T11:15:14;34.70;;;15.90;;
62947;SDS011;51940;52.126;-0.994;2022-12-18T11:17:52;40.20;;;15.40;;
62947;SDS011;51940;52.126;-0.994;2022-12-18T11:23:11;32.50;;;16.00;;
62947;SDS011;51940;52.126;-0.994;2022-12-18T11:25:38;38.10;;;16.20;;
62947;SDS011;51940;52.126;-0.994;2022-12-18T11:28:05;32.50;;;14.60;;
62947;SDS011;51940;52.126;-0.994;2022-12-18T11:33:52;32.50;;;15.30;;
62947;SDS011;51940;52.126;-0.994;2022-12-18T11:36:23;36.90;;;16.60;;
62947;SDS011;51940;52.126;-0.994;2022-12-18T11:38:49;35.30;;;16.30;;
62947;SDS011;51940;52.126;-0.994;2022-12-18T11:41:23;35.10;;;16.50;;
62947;SDS011;51940;52.126;-0.994;2022-12-18T11:44:26;34.20;;;15.50;;
62947;SDS011;51940;52.126;-0.994;2022-12-18T11:46:59;33.10;;;15.80;;
62947;SDS011;51940;52.126;-0.994;2022-12-18T11:49:30;34.50;;;16.40;;
62947;SDS011;51940;52.126;-0.994;2022-12-18T11:54:46;39.00;;;17.60;;
62947;SDS011;51940;52.126;-0.994;2022-12-18T12:00:22;29.80;;;14.80;;
62947;SDS011;51940;52.126;-0.994;2022-12-18T12:16:46;31.50;;;15.10;;
62947;SDS011;51940;52.126;-0.994;2022-12-18T12:19:20;32.20;;;14.50;;
62947;SDS011;51940;52.126;-0.994;2022-12-18T12:22:10;32.80;;;15.80;;
62947;SDS011;51940;52.126;-0.994;2022-12-18T12:35:59;33.60;;;15.90;;
62947;SDS011;51940;52.126;-0.994;2022-12-18T12:38:48;31.50;;;15.80;;
62947;SDS011;51940;52.126;-0.994;2022-12-18T12:41:25;31.90;;;15.30;;
62947;SDS011;51940;52.126;-0.994;2022-12-18T12:44:15;36.60;;;16.00;;
62947;SDS011;51940;52.126;-0.994;2022-12-18T12:46:45;32.20;;;16.30;;
62947;SDS011;51940;52.126;-0.994;2022-12-18T12:49:15;32.40;;;16.50;;
62947;SDS011;51940;52.126;-0.994;2022-12-18T12:51:45;37.30;;;16.40;;
62947;SDS011;51940;52.126;-0.994;2022-12-18T12:54:19;32.50;;;16.50;;
62947;SDS011;51940;52.126;-0.994;2022-12-18T13:07:50;38.80;;;17.20;;
62947;SDS011;51940;52.126;-0.994;2022-12-18T13:20:34;35.60;;;16.30;;
62947;SDS011;51940;52.126;-0.994;2022-12-18T13:23:17;32.10;;;15.20;;
62947;SDS011;51940;52.126;-0.994;2022-12-18T13:25:48;35.60;;;18.00;;
62947;SDS011;51940;52.126;-0.994;2022-12-18T13:31:03;35.90;;;16.60;;
62947;SDS011;51940;52.126;-0.994;2022-12-18T13:39:08;34.20;;;17.10;;
62947;SDS011;51940;52.126;-0.994;2022-12-18T13:41:45;34.60;;;16.10;;
62947;SDS011;51940;52.126;-0.994;2022-12-18T13:44:13;36.10;;;18.10;;
62947;SDS011;51940;52.126;-0.994;2022-12-18T13:47:04;36.50;;;18.10;;
62947;SDS011;51940;52.126;-0.994;2022-12-18T13:49:49;37.20;;;17.50;;
62947;SDS011;51940;52.126;-0.994;2022-12-18T13:52:17;32.30;;;17.30;;
62947;SDS011;51940;52.126;-0.994;2022-12-18T13:54:50;38.40;;;17.10;;
62947;SDS011;51940;52.126;-0.994;2022-12-18T13:57:32;37.50;;;18.70;;
62947;SDS011;51940;52.126;-0.994;2022-12-18T14:00:14;33.80;;;16.80;;
62947;SDS011;51940;52.126;-0.994;2022-12-18T14:02:49;33.00;;;16.80;;
62947;SDS011;51940;52.126;-0.994;2022-12-18T14:05:22;36.80;;;17.30;;
62947;SDS011;51940;52.126;-0.994;2022-12-18T14:07:49;33.60;;;17.60;;
62947;SDS011;51940;52.126;-0.994;2022-12-18T14:10:15;30.30;;;16.40;;
62947;SDS011;51940;52.126;-0.994;2022-12-18T14:12:44;35.80;;;17.50;;
62947;SDS011;51940;52.126;-0.994;2022-12-18T14:17:59;34.60;;;16.50;;
62947;SDS011;51940;52.126;-0.994;2022-12-18T14:20:27;36.70;;;18.40;;
62947;SDS011;51940;52.126;-0.994;2022-12-18T14:22:55;29.80;;;16.80;;
62947;SDS011;51940;52.126;-0.994;2022-12-18T14:25:23;32.10;;;16.20;;
62947;SDS011;51940;52.126;-0.994;2022-12-18T14:28:00;27.00;;;15.00;;
62947;SDS011;51940;52.126;-0.994;2022-12-18T14:35:31;26.20;;;14.20;;
62947;SDS011;51940;52.126;-0.994;2022-12-18T14:40:41;23.50;;;12.50;;
62947;SDS011;51940;52.126;-0.994;2022-12-18T14:43:11;25.00;;;13.30;;
62947;SDS011;51940;52.126;-0.994;2022-12-18T14:45:38;22.80;;;12.50;;
62947;SDS011;51940;52.126;-0.994;2022-12-18T14:48:13;27.50;;;14.20;;
62947;SDS011;51940;52.126;-0.994;2022-12-18T14:50:43;18.70;;;12.10;;
62947;SDS011;51940;52.126;-0.994;2022-12-18T14:53:28;23.20;;;13.00;;
62947;SDS011;51940;52.126;-0.994;2022-12-18T14:55:56;20.30;;;11.90;;
62947;SDS011;51940;52.126;-0.994;2022-12-18T14:58:21;19.10;;;11.70;;
62947;SDS011;51940;52.126;-0.994;2022-12-18T15:00:47;21.60;;;11.30;;
62947;SDS011;51940;52.126;-0.994;2022-12-18T15:03:14;20.60;;;11.00;;
62947;SDS011;51940;52.126;-0.994;2022-12-18T15:05:44;17.00;;;10.10;;
62947;SDS011;51940;52.126;-0.994;2022-12-18T15:08:27;17.90;;;11.30;;
62947;SDS011;51940;52.126;-0.994;2022-12-18T15:10:56;16.90;;;10.30;;
62947;SDS011;51940;52.126;-0.994;2022-12-18T15:13:22;15.70;;;10.00;;
62947;SDS011;51940;52.126;-0.994;2022-12-18T15:15:49;17.20;;;10.20;;
62947;SDS011;51940;52.126;-0.994;2022-12-18T15:18:17;17.40;;;10.70;;
62947;SDS011;51940;52.126;-0.994;2022-12-18T15:20:50;16.80;;;10.20;;
62947;SDS011;51940;52.126;-0.994;2022-12-18T15:23:27;14.60;;;9.20;;
62947;SDS011;51940;52.126;-0.994;2022-12-18T15:26:08;17.90;;;9.80;;
62947;SDS011;51940;52.126;-0.994;2022-12-18T15:28:39;14.40;;;9.20;;
62947;SDS011;51940;52.126;-0.994;2022-12-18T15:36:17;13.10;;;8.50;;
62947;SDS011;51940;52.126;-0.994;2022-12-18T15:38:47;15.00;;;9.40;;
62947;SDS011;51940;52.126;-0.994;2022-12-18T15:41:19;15.20;;;8.70;;
62947;SDS011;51940;52.126;-0.994;2022-12-18T15:43:47;12.60;;;8.60;;
62947;SDS011;51940;52.126;-0.994;2022-12-18T15:46:15;13.60;;;9.20;;
62947;SDS011;51940;52.126;-0.994;2022-12-18T15:48:48;12.20;;;8.10;;
62947;SDS011;51940;52.126;-0.994;2022-12-18T15:51:29;11.00;;;7.90;;
62947;SDS011;51940;52.126;-0.994;2022-12-18T15:54:01;10.90;;;7.80;;
62947;SDS011;51940;52.126;-0.994;2022-12-18T15:56:29;12.50;;;8.20;;
62947;SDS011;51940;52.126;-0.994;2022-12-18T15:59:15;11.90;;;7.60;;
62947;SDS011;51940;52.126;-0.994;2022-12-18T16:01:44;10.00;;;7.10;;
62947;SDS011;51940;52.126;-0.994;2022-12-18T16:04:12;7.70;;;5.90;;
62947;SDS011;51940;52.126;-0.994;2022-12-18T16:06:39;7.60;;;6.50;;
62947;SDS011;51940;52.126;-0.994;2022-12-18T16:09:05;7.50;;;5.80;;
62947;SDS011;51940;52.126;-0.994;2022-12-18T16:11:31;8.20;;;6.20;;
62947;SDS011;51940;52.126;-0.994;2022-12-18T16:16:43;6.90;;;6.10;;
62947;SDS011;51940;52.126;-0.994;2022-12-18T16:19:09;7.90;;;6.00;;
62947;SDS011;51940;52.126;-0.994;2022-12-18T16:21:34;6.50;;;5.80;;
62947;SDS011;51940;52.126;-0.994;2022-12-18T16:24:00;6.40;;;5.30;;
62947;SDS011;51940;52.126;-0.994;2022-12-18T16:26:26;7.20;;;5.60;;
62947;SDS011;51940;52.126;-0.994;2022-12-18T16:28:51;6.00;;;5.40;;
62947;SDS011;51940;52.126;-0.994;2022-12-18T16:31:18;7.00;;;5.80;;
62947;SDS011;51940;52.126;-0.994;2022-12-18T16:33:43;7.90;;;6.20;;
62947;SDS011;51940;52.126;-0.994;2022-12-18T16:36:09;7.20;;;6.40;;
62947;SDS011;51940;52.126;-0.994;2022-12-18T16:38:34;7.20;;;6.20;;
62947;SDS011;51940;52.126;-0.994;2022-12-18T16:41:00;8.20;;;6.40;;
62947;SDS011;51940;52.126;-0.994;2022-12-18T16:43:43;8.70;;;6.10;;
62947;SDS011;51940;52.126;-0.994;2022-12-18T16:46:09;7.10;;;6.20;;
62947;SDS011;51940;52.126;-0.994;2022-12-18T16:48:34;6.30;;;5.60;;